TimeCST,TemperatureF,Dew PointF,Humidity,Sea Level PressureIn,VisibilityMPH,Wind Direction,Wind SpeedMPH,Gust SpeedMPH,PrecipitationIn,Events,Conditions,WindDirDegrees,DateUTC
12:00 AM,82,78,84,29.92,12,East,4.6,,,,Partly Cloudy,90,2013-10-05 06:00:00
3:00 AM,81,78,89,29.87,12,Calm,Calm,,,,Partly Cloudy,,2013-10-05 09:00:00
5:00 AM,78.8,77.0,94,29.86,6.2,East,2.3,-,N/A,,Scattered Clouds,100,2013-10-05 11:00:00
6:00 AM,80,77,89,29.87,12,East,1.2,,,,Scattered Clouds,90,2013-10-05 12:00:00
6:00 AM,80.6,77.0,89,29.86,6.2,East,1.2,-,N/A,,Mostly Cloudy,90,2013-10-05 12:00:00
7:00 AM,82.4,78.8,89,29.86,6.2,East,4.6,-,N/A,,Mostly Cloudy,100,2013-10-05 13:00:00
8:00 AM,86.0,77.0,74,29.89,6.2,East,8.1,-,N/A,,Mostly Cloudy,90,2013-10-05 14:00:00
9:00 AM,87,78,68,29.91,12,East,8.1,,,,Scattered Clouds,90,2013-10-05 15:00:00
9:00 AM,87.8,78.8,75,29.90,6.2,East,8.1,-,N/A,,Mostly Cloudy,90,2013-10-05 15:00:00
10:00 AM,87.8,77.0,70,29.90,6.2,ESE,6.9,-,N/A,,Mostly Cloudy,110,2013-10-05 16:00:00
11:00 AM,86.0,77.0,74,29.90,6.2,ESE,9.2,-,N/A,,Mostly Cloudy,110,2013-10-05 17:00:00
12:00 PM,86,80,76,29.89,14,East,6.9,,,,Partly Cloudy,80,2013-10-05 18:00:00
12:00 PM,86.0,78.8,79,29.88,6.2,East,6.9,-,N/A,,Mostly Cloudy,80,2013-10-05 18:00:00
1:00 PM,87.8,77.0,70,29.85,6.2,East,10.4,-,N/A,,Mostly Cloudy,80,2013-10-05 19:00:00
1:42 PM,87.8,77.0,70,29.85,6.2,ESE,6.9,-,N/A,Thunderstorm,Thunderstorm,110,2013-10-05 19:42:00
2:00 PM,84.2,78.8,84,29.84,6.2,ESE,4.6,-,N/A,Thunderstorm,Thunderstorm,110,2013-10-05 20:00:00
2:30 PM,84.2,78.8,84,29.84,6.2,ENE,11.5,-,N/A,,Mostly Cloudy,70,2013-10-05 20:30:00
2:42 PM,84.2,-9999,N/A,29.84,6.2,East,9.2,-,N/A,Thunderstorm,Thunderstorm,90,2013-10-05 20:42:00
3:00 PM,81,76,81,29.85,11,South,5.8,,,Thunderstorm,Thunderstorm,170,2013-10-05 21:00:00
3:00 PM,80.6,77.0,89,29.84,6.2,South,5.8,-,N/A,Thunderstorm,Thunderstorm,170,2013-10-05 21:00:00
3:37 PM,80.6,77.0,89,29.83,6.2,SSE,2.3,-,N/A,,Mostly Cloudy,150,2013-10-05 21:37:00
4:00 PM,78.8,78.8,100,29.83,6.2,SSW,1.2,-,N/A,,Mostly Cloudy,200,2013-10-05 22:00:00
5:00 PM,82.4,78.8,89,29.84,6.2,SE,5.8,-,N/A,,Mostly Cloudy,130,2013-10-05 23:00:00
6:00 PM,80,77,89,29.86,12,ESE,2.3,,,,Partly Cloudy,120,2013-10-06 00:00:00
6:00 PM,78.8,77.0,94,29.85,6.2,ESE,2.3,-,N/A,,Mostly Cloudy,120,2013-10-06 00:00:00
9:00 PM,82,78,86,29.91,12,East,5.8,,,,Scattered Clouds,100,2013-10-06 03:00:00